sensor_id;sensor_type;location;lat;lon;timestamp;temperature;humidity
9482;DHT22;4779;48.062;11.672;2023-03-24T00:00:11;11.50;99.90
9482;DHT22;4779;48.062;11.672;2023-03-24T00:02:40;11.50;99.90
9482;DHT22;4779;48.062;11.672;2023-03-24T00:05:08;11.50;99.90
9482;DHT22;4779;48.062;11.672;2023-03-24T00:07:36;11.50;99.90
9482;DHT22;4779;48.062;11.672;2023-03-24T00:10:05;11.50;99.90
9482;DHT22;4779;48.062;11.672;2023-03-24T00:12:35;11.50;99.90
9482;DHT22;4779;48.062;11.672;2023-03-24T00:15:05;11.50;99.90
9482;DHT22;4779;48.062;11.672;2023-03-24T00:17:32;11.60;99.90
9482;DHT22;4779;48.062;11.672;2023-03-24T00:20:00;11.60;99.90
9482;DHT22;4779;48.062;11.672;2023-03-24T00:22:32;11.60;99.90
9482;DHT22;4779;48.062;11.672;2023-03-24T00:24:59;11.60;99.90
9482;DHT22;4779;48.062;11.672;2023-03-24T00:27:29;11.60;99.90
9482;DHT22;4779;48.062;11.672;2023-03-24T00:29:57;11.60;99.90
9482;DHT22;4779;48.062;11.672;2023-03-24T00:32:24;11.50;99.90
9482;DHT22;4779;48.062;11.672;2023-03-24T00:34:51;11.40;99.90
9482;DHT22;4779;48.062;11.672;2023-03-24T00:37:18;11.40;99.90
9482;DHT22;4779;48.062;11.672;2023-03-24T00:39:45;11.30;99.90
9482;DHT22;4779;48.062;11.672;2023-03-24T00:42:12;11.20;99.90
9482;DHT22;4779;48.062;11.672;2023-03-24T00:44:39;11.20;99.90
9482;DHT22;4779;48.062;11.672;2023-03-24T00:47:10;11.20;99.90
9482;DHT22;4779;48.062;11.672;2023-03-24T00:49:37;11.10;99.90
9482;DHT22;4779;48.062;11.672;2023-03-24T00:52:12;11.00;99.90
9482;DHT22;4779;48.062;11.672;2023-03-24T00:54:40;10.90;99.90
9482;DHT22;4779;48.062;11.672;2023-03-24T00:57:08;11.00;99.90
9482;DHT22;4779;48.062;11.672;2023-03-24T00:59:37;10.90;99.90
9482;DHT22;4779;48.062;11.672;2023-03-24T01:02:14;10.90;99.90
9482;DHT22;4779;48.062;11.672;2023-03-24T01:04:44;11.00;99.90
9482;DHT22;4779;48.062;11.672;2023-03-24T01:07:12;11.00;99.90
9482;DHT22;4779;48.062;11.672;2023-03-24T01:09:43;11.00;99.90
9482;DHT22;4779;48.062;11.672;2023-03-24T01:12:16;11.10;99.90
9482;DHT22;4779;48.062;11.672;2023-03-24T01:14:43;11.10;99.90
9482;DHT22;4779;48.062;11.672;2023-03-24T01:17:11;11.10;99.90
9482;DHT22;4779;48.062;11.672;2023-03-24T01:19:39;11.20;99.90
9482;DHT22;4779;48.062;11.672;2023-03-24T01:22:07;11.20;99.90
9482;DHT22;4779;48.062;11.672;2023-03-24T01:24:34;11.20;99.90
9482;DHT22;4779;48.062;11.672;2023-03-24T01:27:01;11.20;99.90
9482;DHT22;4779;48.062;11.672;2023-03-24T01:29:28;11.20;99.90
9482;DHT22;4779;48.062;11.672;2023-03-24T01:31:56;11.20;99.90
9482;DHT22;4779;48.062;11.672;2023-03-24T01:34:23;11.20;99.90
9482;DHT22;4779;48.062;11.672;2023-03-24T01:36:52;11.10;99.90
9482;DHT22;4779;48.062;11.672;2023-03-24T01:39:19;11.20;99.90
9482;DHT22;4779;48.062;11.672;2023-03-24T01:41:46;11.20;99.90
9482;DHT22;4779;48.062;11.672;2023-03-24T01:44:24;11.20;99.90
9482;DHT22;4779;48.062;11.672;2023-03-24T01:46:52;11.20;99.90
9482;DHT22;4779;48.062;11.672;2023-03-24T01:49:19;11.20;99.90
9482;DHT22;4779;48.062;11.672;2023-03-24T01:51:48;11.30;99.90
9482;DHT22;4779;48.062;11.672;2023-03-24T01:54:19;11.20;99.90
9482;DHT22;4779;48.062;11.672;2023-03-24T01:56:50;11.20;99.90
9482;DHT22;4779;48.062;11.672;2023-03-24T01:59:22;11.20;99.90
9482;DHT22;4779;48.062;11.672;2023-03-24T02:01:51;11.20;99.90
9482;DHT22;4779;48.062;11.672;2023-03-24T02:04:19;11.20;99.90
9482;DHT22;4779;48.062;11.672;2023-03-24T02:06:47;11.20;99.90
9482;DHT22;4779;48.062;11.672;2023-03-24T02:09:16;11.20;99.90
9482;DHT22;4779;48.062;11.672;2023-03-24T02:11:44;11.20;99.90
9482;DHT22;4779;48.062;11.672;2023-03-24T02:14:11;11.20;99.90
9482;DHT22;4779;48.062;11.672;2023-03-24T02:17:04;11.10;99.90
9482;DHT22;4779;48.062;11.672;2023-03-24T02:20:06;11.10;99.90
9482;DHT22;4779;48.062;11.672;2023-03-24T02:26:15;11.00;99.90
9482;DHT22;4779;48.062;11.672;2023-03-24T02:28:54;11.00;99.90
9482;DHT22;4779;48.062;11.672;2023-03-24T03:05:01;11.20;99.90
9482;DHT22;4779;48.062;11.672;2023-03-24T03:07:31;11.20;99.90
9482;DHT22;4779;48.062;11.672;2023-03-24T03:10:06;11.20;99.90
9482;DHT22;4779;48.062;11.672;2023-03-24T03:12:35;11.10;99.90
9482;DHT22;4779;48.062;11.672;2023-03-24T03:15:07;11.00;99.90
9482;DHT22;4779;48.062;11.672;2023-03-24T03:17:39;11.10;99.90
9482;DHT22;4779;48.062;11.672;2023-03-24T03:20:13;11.10;99.90
9482;DHT22;4779;48.062;11.672;2023-03-24T03:22:45;11.00;99.90
9482;DHT22;4779;48.062;11.672;2023-03-24T03:25:19;10.90;99.90
9482;DHT22;4779;48.062;11.672;2023-03-24T03:27:48;10.90;99.90
9482;DHT22;4779;48.062;11.672;2023-03-24T03:30:21;10.90;99.90
9482;DHT22;4779;48.062;11.672;2023-03-24T03:32:51;10.80;99.90
9482;DHT22;4779;48.062;11.672;2023-03-24T03:35:23;10.80;99.90
9482;DHT22;4779;48.062;11.672;2023-03-24T03:37:56;10.80;99.90
9482;DHT22;4779;48.062;11.672;2023-03-24T03:40:30;10.90;99.90
9482;DHT22;4779;48.062;11.672;2023-03-24T03:43:00;10.80;99.90
9482;DHT22;4779;48.062;11.672;2023-03-24T03:45:27;10.70;99.90
9482;DHT22;4779;48.062;11.672;2023-03-24T03:47:54;10.70;99.90
9482;DHT22;4779;48.062;11.672;2023-03-24T03:50:23;10.60;99.90
9482;DHT22;4779;48.062;11.672;2023-03-24T03:52:50;10.60;99.90
9482;DHT22;4779;48.062;11.672;2023-03-24T03:55:18;10.70;99.90
9482;DHT22;4779;48.062;11.672;2023-03-24T03:57:45;10.70;99.90
9482;DHT22;4779;48.062;11.672;2023-03-24T04:00:15;10.70;99.90
9482;DHT22;4779;48.062;11.672;2023-03-24T04:02:58;10.80;99.90
9482;DHT22;4779;48.062;11.672;2023-03-24T04:05:34;10.80;99.90
9482;DHT22;4779;48.062;11.672;2023-03-24T04:08:18;10.70;99.90
9482;DHT22;4779;48.062;11.672;2023-03-24T04:11:05;10.70;99.90
9482;DHT22;4779;48.062;11.672;2023-03-24T04:13:41;10.70;99.90
9482;DHT22;4779;48.062;11.672;2023-03-24T04:16:16;10.70;99.90
9482;DHT22;4779;48.062;11.672;2023-03-24T04:19:15;10.60;99.90
9482;DHT22;4779;48.062;11.672;2023-03-24T04:21:57;10.60;99.90
9482;DHT22;4779;48.062;11.672;2023-03-24T04:24:39;10.60;99.90
9482;DHT22;4779;48.062;11.672;2023-03-24T04:27:12;10.60;99.90
9482;DHT22;4779;48.062;11.672;2023-03-24T04:29:51;10.50;99.90
9482;DHT22;4779;48.062;11.672;2023-03-24T04:32:26;10.50;99.90
9482;DHT22;4779;48.062;11.672;2023-03-24T04:34:57;10.50;99.90
9482;DHT22;4779;48.062;11.672;2023-03-24T04:37:29;10.50;99.90
9482;DHT22;4779;48.062;11.672;2023-03-24T04:39:58;10.50;99.90
9482;DHT22;4779;48.062;11.672;2023-03-24T04:42:29;10.60;99.90
9482;DHT22;4779;48.062;11.672;2023-03-24T04:44:58;10.60;99.90
9482;DHT22;4779;48.062;11.672;2023-03-24T04:47:28;10.70;99.90
9482;DHT22;4779;48.062;11.672;2023-03-24T04:50:00;10.70;99.90
9482;DHT22;4779;48.062;11.672;2023-03-24T04:52:28;10.70;99.90
9482;DHT22;4779;48.062;11.672;2023-03-24T04:54:55;10.80;99.90
9482;DHT22;4779;48.062;11.672;2023-03-24T04:57:22;10.80;99.90
9482;DHT22;4779;48.062;11.672;2023-03-24T04:59:50;10.70;99.90
9482;DHT22;4779;48.062;11.672;2023-03-24T05:02:17;10.70;99.90
9482;DHT22;4779;48.062;11.672;2023-03-24T05:04:44;10.70;99.90
9482;DHT22;4779;48.062;11.672;2023-03-24T05:07:11;10.70;99.90
9482;DHT22;4779;48.062;11.672;2023-03-24T05:09:41;10.70;99.90
9482;DHT22;4779;48.062;11.672;2023-03-24T05:12:08;10.70;99.90
9482;DHT22;4779;48.062;11.672;2023-03-24T05:14:35;10.70;99.90
9482;DHT22;4779;48.062;11.672;2023-03-24T05:17:02;10.70;99.90
9482;DHT22;4779;48.062;11.672;2023-03-24T05:19:29;10.70;99.90
9482;DHT22;4779;48.062;11.672;2023-03-24T05:21:57;10.70;99.90
9482;DHT22;4779;48.062;11.672;2023-03-24T05:24:24;10.80;99.90
9482;DHT22;4779;48.062;11.672;2023-03-24T05:26:52;10.80;99.90
9482;DHT22;4779;48.062;11.672;2023-03-24T05:29:19;10.70;99.90
9482;DHT22;4779;48.062;11.672;2023-03-24T05:31:46;10.80;99.90
9482;DHT22;4779;48.062;11.672;2023-03-24T05:34:13;10.80;99.90
9482;DHT22;4779;48.062;11.672;2023-03-24T05:36:39;10.80;99.90
9482;DHT22;4779;48.062;11.672;2023-03-24T05:39:06;10.80;99.90
9482;DHT22;4779;48.062;11.672;2023-03-24T05:41:33;10.90;99.90
9482;DHT22;4779;48.062;11.672;2023-03-24T05:44:01;10.80;99.90
9482;DHT22;4779;48.062;11.672;2023-03-24T05:46:28;10.90;99.90
9482;DHT22;4779;48.062;11.672;2023-03-24T05:48:55;10.80;99.90
9482;DHT22;4779;48.062;11.672;2023-03-24T05:51:22;10.80;99.90
9482;DHT22;4779;48.062;11.672;2023-03-24T05:53:49;10.90;99.90
9482;DHT22;4779;48.062;11.672;2023-03-24T05:56:17;11.00;99.90
9482;DHT22;4779;48.062;11.672;2023-03-24T05:58:44;11.00;99.90
9482;DHT22;4779;48.062;11.672;2023-03-24T06:01:12;11.00;99.90
9482;DHT22;4779;48.062;11.672;2023-03-24T06:03:43;11.10;99.90
9482;DHT22;4779;48.062;11.672;2023-03-24T06:06:10;11.10;99.90
9482;DHT22;4779;48.062;11.672;2023-03-24T06:08:41;11.10;99.90
9482;DHT22;4779;48.062;11.672;2023-03-24T06:11:10;11.10;99.90
9482;DHT22;4779;48.062;11.672;2023-03-24T06:13:37;11.10;99.90
9482;DHT22;4779;48.062;11.672;2023-03-24T06:16:04;11.20;99.90
9482;DHT22;4779;48.062;11.672;2023-03-24T06:18:33;11.20;99.90
9482;DHT22;4779;48.062;11.672;2023-03-24T06:21:01;11.20;99.90
9482;DHT22;4779;48.062;11.672;2023-03-24T06:23:29;11.20;99.90
9482;DHT22;4779;48.062;11.672;2023-03-24T06:26:01;11.10;99.90
9482;DHT22;4779;48.062;11.672;2023-03-24T06:28:33;11.10;99.90
9482;DHT22;4779;48.062;11.672;2023-03-24T06:31:00;11.10;99.90
9482;DHT22;4779;48.062;11.672;2023-03-24T06:33:27;11.10;99.90
9482;DHT22;4779;48.062;11.672;2023-03-24T06:35:55;11.10;99.90
9482;DHT22;4779;48.062;11.672;2023-03-24T06:38:22;11.20;99.90
9482;DHT22;4779;48.062;11.672;2023-03-24T06:40:49;11.30;99.90
9482;DHT22;4779;48.062;11.672;2023-03-24T06:43:16;11.30;99.90
9482;DHT22;4779;48.062;11.672;2023-03-24T06:45:43;11.40;99.90
9482;DHT22;4779;48.062;11.672;2023-03-24T06:48:10;11.40;99.90
9482;DHT22;4779;48.062;11.672;2023-03-24T06:50:37;11.50;99.90
9482;DHT22;4779;48.062;11.672;2023-03-24T06:53:05;11.50;99.90
9482;DHT22;4779;48.062;11.672;2023-03-24T06:55:32;11.50;99.90
9482;DHT22;4779;48.062;11.672;2023-03-24T06:57:59;11.50;99.90
9482;DHT22;4779;48.062;11.672;2023-03-24T07:00:26;11.50;99.90
9482;DHT22;4779;48.062;11.672;2023-03-24T07:02:53;11.50;99.90
9482;DHT22;4779;48.062;11.672;2023-03-24T07:05:20;11.50;99.90
9482;DHT22;4779;48.062;11.672;2023-03-24T07:07:48;11.50;99.90
9482;DHT22;4779;48.062;11.672;2023-03-24T07:10:16;11.50;99.90
9482;DHT22;4779;48.062;11.672;2023-03-24T07:12:46;11.60;99.90
9482;DHT22;4779;48.062;11.672;2023-03-24T07:15:13;11.70;99.90
9482;DHT22;4779;48.062;11.672;2023-03-24T07:17:40;11.70;99.90
9482;DHT22;4779;48.062;11.672;2023-03-24T07:20:08;11.70;99.90
9482;DHT22;4779;48.062;11.672;2023-03-24T07:22:35;11.70;99.90
9482;DHT22;4779;48.062;11.672;2023-03-24T07:25:02;11.80;99.90
9482;DHT22;4779;48.062;11.672;2023-03-24T07:27:31;11.80;99.90
9482;DHT22;4779;48.062;11.672;2023-03-24T07:29:58;11.70;99.90
9482;DHT22;4779;48.062;11.672;2023-03-24T07:32:25;11.70;99.90
9482;DHT22;4779;48.062;11.672;2023-03-24T07:34:53;11.60;99.90
9482;DHT22;4779;48.062;11.672;2023-03-24T07:37:20;11.70;99.90
9482;DHT22;4779;48.062;11.672;2023-03-24T07:39:47;11.70;99.90
9482;DHT22;4779;48.062;11.672;2023-03-24T07:42:14;11.70;99.90
9482;DHT22;4779;48.062;11.672;2023-03-24T07:44:42;11.70;99.90
9482;DHT22;4779;48.062;11.672;2023-03-24T07:47:09;11.60;99.90
9482;DHT22;4779;48.062;11.672;2023-03-24T07:49:36;11.60;99.90
9482;DHT22;4779;48.062;11.672;2023-03-24T07:52:04;11.50;99.90
9482;DHT22;4779;48.062;11.672;2023-03-24T07:54:31;11.60;99.90
9482;DHT22;4779;48.062;11.672;2023-03-24T07:56:59;11.50;99.90
9482;DHT22;4779;48.062;11.672;2023-03-24T07:59:26;11.60;99.90
9482;DHT22;4779;48.062;11.672;2023-03-24T08:01:55;11.60;99.90
9482;DHT22;4779;48.062;11.672;2023-03-24T08:04:22;11.60;99.90
9482;DHT22;4779;48.062;11.672;2023-03-24T08:06:48;11.60;99.90
9482;DHT22;4779;48.062;11.672;2023-03-24T08:09:17;11.60;99.90
9482;DHT22;4779;48.062;11.672;2023-03-24T08:11:44;11.70;99.90
9482;DHT22;4779;48.062;11.672;2023-03-24T08:14:11;11.70;99.90
9482;DHT22;4779;48.062;11.672;2023-03-24T08:16:38;11.70;99.90
9482;DHT22;4779;48.062;11.672;2023-03-24T08:19:06;11.70;99.90
9482;DHT22;4779;48.062;11.672;2023-03-24T08:21:33;11.80;99.90
9482;DHT22;4779;48.062;11.672;2023-03-24T08:24:00;11.90;99.90
9482;DHT22;4779;48.062;11.672;2023-03-24T08:26:28;12.00;99.90
9482;DHT22;4779;48.062;11.672;2023-03-24T08:28:55;12.20;99.90
9482;DHT22;4779;48.062;11.672;2023-03-24T08:31:22;12.20;99.90
9482;DHT22;4779;48.062;11.672;2023-03-24T08:33:49;12.30;99.90
9482;DHT22;4779;48.062;11.672;2023-03-24T08:36:17;12.40;99.90
9482;DHT22;4779;48.062;11.672;2023-03-24T08:38:44;12.50;99.90
9482;DHT22;4779;48.062;11.672;2023-03-24T08:41:12;12.50;99.90
9482;DHT22;4779;48.062;11.672;2023-03-24T08:43:39;12.60;99.90
9482;DHT22;4779;48.062;11.672;2023-03-24T08:46:07;12.70;99.90
9482;DHT22;4779;48.062;11.672;2023-03-24T08:48:34;12.70;99.90
9482;DHT22;4779;48.062;11.672;2023-03-24T08:51:10;12.80;99.90
9482;DHT22;4779;48.062;11.672;2023-03-24T08:53:38;12.80;99.90
9482;DHT22;4779;48.062;11.672;2023-03-24T08:56:06;12.80;99.90
9482;DHT22;4779;48.062;11.672;2023-03-24T08:58:33;12.80;99.90
9482;DHT22;4779;48.062;11.672;2023-03-24T09:01:01;12.90;99.90
9482;DHT22;4779;48.062;11.672;2023-03-24T09:03:28;12.90;99.90
9482;DHT22;4779;48.062;11.672;2023-03-24T09:05:55;12.90;99.90
9482;DHT22;4779;48.062;11.672;2023-03-24T09:08:23;12.90;99.90
9482;DHT22;4779;48.062;11.672;2023-03-24T09:10:51;12.90;99.90
9482;DHT22;4779;48.062;11.672;2023-03-24T09:13:19;13.00;99.90
9482;DHT22;4779;48.062;11.672;2023-03-24T09:15:47;13.10;99.90
9482;DHT22;4779;48.062;11.672;2023-03-24T09:18:14;13.20;99.90
9482;DHT22;4779;48.062;11.672;2023-03-24T09:20:41;13.30;99.90
9482;DHT22;4779;48.062;11.672;2023-03-24T09:23:08;13.40;99.90
9482;DHT22;4779;48.062;11.672;2023-03-24T09:25:36;13.50;99.90
9482;DHT22;4779;48.062;11.672;2023-03-24T09:28:04;13.60;99.90
9482;DHT22;4779;48.062;11.672;2023-03-24T09:30:31;13.70;99.90
9482;DHT22;4779;48.062;11.672;2023-03-24T09:32:58;13.70;99.90
9482;DHT22;4779;48.062;11.672;2023-03-24T09:35:26;13.80;99.90
9482;DHT22;4779;48.062;11.672;2023-03-24T09:37:53;13.80;99.90
9482;DHT22;4779;48.062;11.672;2023-03-24T09:40:23;13.80;99.90
9482;DHT22;4779;48.062;11.672;2023-03-24T09:42:54;13.80;99.90
9482;DHT22;4779;48.062;11.672;2023-03-24T09:45:26;13.80;99.90
9482;DHT22;4779;48.062;11.672;2023-03-24T09:47:57;13.70;99.90
9482;DHT22;4779;48.062;11.672;2023-03-24T09:50:28;13.60;99.90
9482;DHT22;4779;48.062;11.672;2023-03-24T09:53:03;13.50;99.90
9482;DHT22;4779;48.062;11.672;2023-03-24T09:55:34;13.40;99.90
9482;DHT22;4779;48.062;11.672;2023-03-24T09:58:05;13.30;99.90
9482;DHT22;4779;48.062;11.672;2023-03-24T10:00:35;13.30;99.90
9482;DHT22;4779;48.062;11.672;2023-03-24T10:03:13;13.20;99.90
9482;DHT22;4779;48.062;11.672;2023-03-24T10:05:43;13.10;99.90
9482;DHT22;4779;48.062;11.672;2023-03-24T10:08:14;13.00;99.90
9482;DHT22;4779;48.062;11.672;2023-03-24T10:10:51;13.00;99.90
9482;DHT22;4779;48.062;11.672;2023-03-24T10:13:27;12.90;99.90
9482;DHT22;4779;48.062;11.672;2023-03-24T10:16:03;12.90;99.90
9482;DHT22;4779;48.062;11.672;2023-03-24T10:18:34;12.80;99.90
9482;DHT22;4779;48.062;11.672;2023-03-24T10:21:07;12.80;99.90
9482;DHT22;4779;48.062;11.672;2023-03-24T10:23:40;12.90;99.90
9482;DHT22;4779;48.062;11.672;2023-03-24T10:26:22;12.90;99.90
9482;DHT22;4779;48.062;11.672;2023-03-24T10:28:52;12.90;99.90
9482;DHT22;4779;48.062;11.672;2023-03-24T10:31:28;12.90;99.90
9482;DHT22;4779;48.062;11.672;2023-03-24T10:33:55;12.80;99.90
9482;DHT22;4779;48.062;11.672;2023-03-24T10:36:22;12.80;99.90
9482;DHT22;4779;48.062;11.672;2023-03-24T10:38:50;12.80;99.90
9482;DHT22;4779;48.062;11.672;2023-03-24T10:41:19;12.80;99.90
9482;DHT22;4779;48.062;11.672;2023-03-24T10:43:48;12.90;99.90
9482;DHT22;4779;48.062;11.672;2023-03-24T10:46:18;12.90;99.90
9482;DHT22;4779;48.062;11.672;2023-03-24T10:48:49;12.80;99.90
9482;DHT22;4779;48.062;11.672;2023-03-24T10:51:18;12.80;99.90
9482;DHT22;4779;48.062;11.672;2023-03-24T10:53:47;12.80;99.90
9482;DHT22;4779;48.062;11.672;2023-03-24T10:56:18;12.90;99.90
9482;DHT22;4779;48.062;11.672;2023-03-24T10:59:02;12.90;99.90
9482;DHT22;4779;48.062;11.672;2023-03-24T11:01:30;12.90;99.90
9482;DHT22;4779;48.062;11.672;2023-03-24T11:04:03;12.80;99.90
9482;DHT22;4779;48.062;11.672;2023-03-24T11:06:31;12.70;99.90
9482;DHT22;4779;48.062;11.672;2023-03-24T11:09:09;12.70;99.90
9482;DHT22;4779;48.062;11.672;2023-03-24T11:11:36;12.70;99.90
9482;DHT22;4779;48.062;11.672;2023-03-24T11:14:18;12.70;99.90
9482;DHT22;4779;48.062;11.672;2023-03-24T11:16:47;12.70;99.90
9482;DHT22;4779;48.062;11.672;2023-03-24T11:19:19;12.70;99.90
9482;DHT22;4779;48.062;11.672;2023-03-24T11:21:47;12.70;99.90
9482;DHT22;4779;48.062;11.672;2023-03-24T11:24:17;12.90;99.90
9482;DHT22;4779;48.062;11.672;2023-03-24T11:26:45;12.90;99.90
9482;DHT22;4779;48.062;11.672;2023-03-24T11:29:18;12.90;99.90
9482;DHT22;4779;48.062;11.672;2023-03-24T11:31:52;12.90;99.90
9482;DHT22;4779;48.062;11.672;2023-03-24T11:34:23;12.90;99.90
9482;DHT22;4779;48.062;11.672;2023-03-24T11:36:52;12.90;99.90
9482;DHT22;4779;48.062;11.672;2023-03-24T11:39:22;12.80;99.90
9482;DHT22;4779;48.062;11.672;2023-03-24T11:42:00;12.70;99.90
9482;DHT22;4779;48.062;11.672;2023-03-24T11:44:30;12.70;99.90
9482;DHT22;4779;48.062;11.672;2023-03-24T11:46:59;12.70;99.90
9482;DHT22;4779;48.062;11.672;2023-03-24T11:49:31;12.80;99.90
9482;DHT22;4779;48.062;11.672;2023-03-24T11:51:59;12.90;99.90
9482;DHT22;4779;48.062;11.672;2023-03-24T11:54:32;12.90;99.90
9482;DHT22;4779;48.062;11.672;2023-03-24T11:57:03;13.00;99.90
9482;DHT22;4779;48.062;11.672;2023-03-24T11:59:35;13.10;99.90
9482;DHT22;4779;48.062;11.672;2023-03-24T12:02:12;13.30;99.90
9482;DHT22;4779;48.062;11.672;2023-03-24T12:04:50;13.40;99.90
9482;DHT22;4779;48.062;11.672;2023-03-24T12:10:26;13.80;99.90
9482;DHT22;4779;48.062;11.672;2023-03-24T12:13:02;13.90;99.90
9482;DHT22;4779;48.062;11.672;2023-03-24T12:15:50;14.00;99.90
9482;DHT22;4779;48.062;11.672;2023-03-24T12:21:21;14.00;99.90
9482;DHT22;4779;48.062;11.672;2023-03-24T12:23:56;14.10;99.90
9482;DHT22;4779;48.062;11.672;2023-03-24T12:26:26;14.40;99.90
9482;DHT22;4779;48.062;11.672;2023-03-24T12:32:09;14.80;99.90
9482;DHT22;4779;48.062;11.672;2023-03-24T12:34:55;14.70;99.90
9482;DHT22;4779;48.062;11.672;2023-03-24T12:37:32;14.50;99.90
9482;DHT22;4779;48.062;11.672;2023-03-24T12:40:19;14.30;99.90
9482;DHT22;4779;48.062;11.672;2023-03-24T12:42:57;14.30;99.90
9482;DHT22;4779;48.062;11.672;2023-03-24T12:45:35;14.10;99.90
9482;DHT22;4779;48.062;11.672;2023-03-24T12:48:40;14.00;99.90
9482;DHT22;4779;48.062;11.672;2023-03-24T12:51:17;13.80;99.90
9482;DHT22;4779;48.062;11.672;2023-03-24T12:53:59;13.80;99.90
9482;DHT22;4779;48.062;11.672;2023-03-24T12:56:34;13.80;99.90
9482;DHT22;4779;48.062;11.672;2023-03-24T12:59:05;13.90;99.90
9482;DHT22;4779;48.062;11.672;2023-03-24T13:01:37;14.00;99.90
9482;DHT22;4779;48.062;11.672;2023-03-24T13:04:09;14.00;99.90
9482;DHT22;4779;48.062;11.672;2023-03-24T13:06:43;14.10;99.90
9482;DHT22;4779;48.062;11.672;2023-03-24T13:09:18;14.10;99.90
9482;DHT22;4779;48.062;11.672;2023-03-24T13:11:54;14.20;99.90
9482;DHT22;4779;48.062;11.672;2023-03-24T13:14:28;14.30;99.90
9482;DHT22;4779;48.062;11.672;2023-03-24T13:17:03;14.30;99.90
9482;DHT22;4779;48.062;11.672;2023-03-24T13:19:33;14.30;99.90
9482;DHT22;4779;48.062;11.672;2023-03-24T13:22:02;14.30;99.90
9482;DHT22;4779;48.062;11.672;2023-03-24T13:24:32;14.30;99.90
9482;DHT22;4779;48.062;11.672;2023-03-24T13:27:05;14.40;99.90
9482;DHT22;4779;48.062;11.672;2023-03-24T13:29:55;14.30;99.90
9482;DHT22;4779;48.062;11.672;2023-03-24T13:32:30;14.30;99.90
9482;DHT22;4779;48.062;11.672;2023-03-24T13:35:02;14.30;99.90
9482;DHT22;4779;48.062;11.672;2023-03-24T13:37:34;14.20;99.90
9482;DHT22;4779;48.062;11.672;2023-03-24T13:40:08;14.20;99.90
9482;DHT22;4779;48.062;11.672;2023-03-24T13:42:42;14.10;99.90
9482;DHT22;4779;48.062;11.672;2023-03-24T13:45:25;14.00;99.90
9482;DHT22;4779;48.062;11.672;2023-03-24T13:48:02;14.00;99.90
9482;DHT22;4779;48.062;11.672;2023-03-24T13:50:31;14.00;99.90
9482;DHT22;4779;48.062;11.672;2023-03-24T13:53:04;14.00;99.90
9482;DHT22;4779;48.062;11.672;2023-03-24T13:55:37;13.80;99.90
9482;DHT22;4779;48.062;11.672;2023-03-24T13:58:10;13.80;99.90
9482;DHT22;4779;48.062;11.672;2023-03-24T14:01:05;13.80;99.90
9482;DHT22;4779;48.062;11.672;2023-03-24T14:03:32;13.80;99.90
9482;DHT22;4779;48.062;11.672;2023-03-24T14:06:02;13.70;99.90
9482;DHT22;4779;48.062;11.672;2023-03-24T14:08:40;13.60;99.90
9482;DHT22;4779;48.062;11.672;2023-03-24T14:11:41;13.50;99.90
9482;DHT22;4779;48.062;11.672;2023-03-24T14:14:18;13.50;99.90
9482;DHT22;4779;48.062;11.672;2023-03-24T14:16:49;13.50;99.90
9482;DHT22;4779;48.062;11.672;2023-03-24T14:19:25;13.40;99.90
9482;DHT22;4779;48.062;11.672;2023-03-24T14:22:00;13.40;99.90
9482;DHT22;4779;48.062;11.672;2023-03-24T14:24:29;13.40;99.90
9482;DHT22;4779;48.062;11.672;2023-03-24T14:26:58;13.30;99.90
9482;DHT22;4779;48.062;11.672;2023-03-24T14:29:36;13.30;99.90
9482;DHT22;4779;48.062;11.672;2023-03-24T14:32:04;13.40;99.90
9482;DHT22;4779;48.062;11.672;2023-03-24T14:34:33;13.40;99.90
9482;DHT22;4779;48.062;11.672;2023-03-24T14:37:03;13.50;99.90
9482;DHT22;4779;48.062;11.672;2023-03-24T14:39:37;13.50;99.90
9482;DHT22;4779;48.062;11.672;2023-03-24T14:42:40;13.40;99.90
9482;DHT22;4779;48.062;11.672;2023-03-24T14:48:40;13.40;99.90
9482;DHT22;4779;48.062;11.672;2023-03-24T14:51:27;13.40;99.90
9482;DHT22;4779;48.062;11.672;2023-03-24T14:54:02;13.30;99.90
9482;DHT22;4779;48.062;11.672;2023-03-24T14:56:34;13.30;99.90
9482;DHT22;4779;48.062;11.672;2023-03-24T14:59:09;13.30;99.90
9482;DHT22;4779;48.062;11.672;2023-03-24T15:01:37;13.30;99.90
9482;DHT22;4779;48.062;11.672;2023-03-24T15:04:10;13.20;99.90
9482;DHT22;4779;48.062;11.672;2023-03-24T15:06:44;13.10;99.90
9482;DHT22;4779;48.062;11.672;2023-03-24T15:09:14;13.00;99.90
9482;DHT22;4779;48.062;11.672;2023-03-24T15:11:41;12.90;99.90
9482;DHT22;4779;48.062;11.672;2023-03-24T15:14:19;12.80;99.90
9482;DHT22;4779;48.062;11.672;2023-03-24T15:16:53;12.70;99.90
9482;DHT22;4779;48.062;11.672;2023-03-24T15:19:22;12.60;99.90
9482;DHT22;4779;48.062;11.672;2023-03-24T15:21:59;12.50;99.90
9482;DHT22;4779;48.062;11.672;2023-03-24T15:24:31;12.50;99.90
9482;DHT22;4779;48.062;11.672;2023-03-24T15:27:28;12.40;99.90
9482;DHT22;4779;48.062;11.672;2023-03-24T15:29:59;12.40;99.90
9482;DHT22;4779;48.062;11.672;2023-03-24T15:32:28;12.40;99.90
9482;DHT22;4779;48.062;11.672;2023-03-24T15:34:58;12.20;99.90
9482;DHT22;4779;48.062;11.672;2023-03-24T15:37:31;12.30;99.90
9482;DHT22;4779;48.062;11.672;2023-03-24T15:39:59;12.20;99.90
9482;DHT22;4779;48.062;11.672;2023-03-24T15:42:26;12.10;99.90
9482;DHT22;4779;48.062;11.672;2023-03-24T15:44:53;12.10;99.90
9482;DHT22;4779;48.062;11.672;2023-03-24T15:47:24;12.00;99.90
9482;DHT22;4779;48.062;11.672;2023-03-24T15:49:52;11.90;99.90
9482;DHT22;4779;48.062;11.672;2023-03-24T15:52:26;11.90;99.90
9482;DHT22;4779;48.062;11.672;2023-03-24T15:54:56;11.90;99.90
9482;DHT22;4779;48.062;11.672;2023-03-24T15:57:24;11.90;99.90
9482;DHT22;4779;48.062;11.672;2023-03-24T16:00:03;11.90;99.90
9482;DHT22;4779;48.062;11.672;2023-03-24T16:02:39;11.80;99.90
9482;DHT22;4779;48.062;11.672;2023-03-24T16:05:14;11.80;99.90
9482;DHT22;4779;48.062;11.672;2023-03-24T16:07:51;11.80;99.90
9482;DHT22;4779;48.062;11.672;2023-03-24T16:10:34;11.70;99.90
9482;DHT22;4779;48.062;11.672;2023-03-24T16:13:13;11.60;99.90
9482;DHT22;4779;48.062;11.672;2023-03-24T16:15:42;11.50;99.90
9482;DHT22;4779;48.062;11.672;2023-03-24T16:18:14;11.40;99.90
9482;DHT22;4779;48.062;11.672;2023-03-24T16:20:42;11.30;99.90
9482;DHT22;4779;48.062;11.672;2023-03-24T16:23:10;11.20;99.90
9482;DHT22;4779;48.062;11.672;2023-03-24T16:25:37;11.10;99.90
9482;DHT22;4779;48.062;11.672;2023-03-24T16:28:04;11.00;99.90
9482;DHT22;4779;48.062;11.672;2023-03-24T16:30:36;11.00;99.90
9482;DHT22;4779;48.062;11.672;2023-03-24T16:33:05;10.90;99.90
9482;DHT22;4779;48.062;11.672;2023-03-24T16:35:34;10.90;99.90
9482;DHT22;4779;48.062;11.672;2023-03-24T16:38:01;10.80;99.90
9482;DHT22;4779;48.062;11.672;2023-03-24T16:40:34;10.80;99.90
9482;DHT22;4779;48.062;11.672;2023-03-24T16:43:02;10.80;99.90
9482;DHT22;4779;48.062;11.672;2023-03-24T16:45:29;10.80;99.90
9482;DHT22;4779;48.062;11.672;2023-03-24T16:47:57;10.80;99.90
9482;DHT22;4779;48.062;11.672;2023-03-24T16:50:27;10.70;99.90
9482;DHT22;4779;48.062;11.672;2023-03-24T16:52:56;10.60;99.90
9482;DHT22;4779;48.062;11.672;2023-03-24T16:55:23;10.60;99.90
9482;DHT22;4779;48.062;11.672;2023-03-24T16:57:50;10.60;99.90